Tipton, IN

11:44 PM EDT on September 15, 2014 (GMT -0400)
Kokomo Municipal | Change Station
CLOSE
Current Station
Airport
Location: Kokomo,
Elevation: 830 ft
Nearby Weather Stations

Elev 830 ft 40.53 °N, 86.06 °W | Updated 9 minutes ago

Overcast
Overcast
55 °F
Feels Like 55 °F
N
4
Wind Variable Wind from NNE

Today
High -- | Low -- °F
--% Chance of Precip.
Yesterday
High -- | Low -- °F
Precip. -- in
7:25 AM 7:52 PM
Waning Gibbous, 49% visible
Pressure 30.13 in
Visibility 3.0 miles
Clouds Scattered Clouds 500 ft
Overcast 5000 ft
Dew Point 54 °F
Humidity 94%
Rainfall 0.99 in
Snow Depth Not available.
UV 0 out of 12
Pollen 5.60 out of 12
Air Quality Not available.
Flu Activity Not available.
METAR KOKK 160335Z AUTO 02003KT 3SM SCT005 OVC050 13/12 A3013 RMK AO1

More Conditions Fewer Conditions

Pressure 30.13 in
Visibility 3.0 miles
Clouds Scattered Clouds 500 ft
Overcast 5000 ft
Dew Point 54 °F
Humidity 94%
Rainfall 0.99 in
Snow Depth Not available.
UV 0 out of 12
Pollen 5.60 out of 12
Air Quality Not available.
Flu Activity Not available.
METAR KOKK 160335Z AUTO 02003KT 3SM SCT005 OVC050 13/12 A3013 RMK AO1

More Conditions Fewer Conditions

10-Day Weather Forecast

Almanac

Astronomy

Sep. 15, 2014 Rise Set
Actual Time 7:25 AM EDT 7:52 PM EDT
Civil Twilight 6:57 AM EDT 8:20 PM EDT
Nautical Twilight 6:25 AM EDT 8:52 PM EDT
Astronomical Twilight 5:52 AM EDT 9:25 PM EDT
Moon No Moon Rise 2:25 PM EDT (9/15)
Length of Visible Light 13h 22m
Length of Day
12h 27m
Tomorrow will be 2m 38s shorter.
Waning Gibbous, 49% of the Moon is Illuminated
Today
Waning Gibbous
Sep 24
New
Oct 1
First Quarter
Oct 8
Full
Oct 15
Last Quarter

Community

WunderPhotos

Upload Photos

1,753,693 photos uploaded!

Nearby

Snow Depth

Station Depth Elevation
No new snow has been reported.

Earthquake Activity

City Distance Mag. Time & Date
No recent earthquake activity has been reported nearby.
Minimum magnitude displayed is 2.5.

Coastal Water Temperatures

Place Temperature
No Stations Reporting

Nearby Weather Stations